createdAt,value
2023-01-03T00:01:54.817Z,229.63
2023-01-03T00:12:16.890Z,225.90
2023-01-03T00:22:20.409Z,217.73
2023-01-03T00:32:25.261Z,228.93
2023-01-03T00:42:28.743Z,230.67
2023-01-03T00:52:33.566Z,227.83
2023-01-03T01:02:37.233Z,215.57
2023-01-03T01:12:43.229Z,220.23
2023-01-03T01:22:46.679Z,214.87
2023-01-03T01:32:51.478Z,213.33
2023-01-03T01:43:12.320Z,199.70
2023-01-03T01:53:22.388Z,205.13
2023-01-03T02:03:26.062Z,221.67
2023-01-03T02:13:40.665Z,209.93
2023-01-03T02:24:39.755Z,226.03
2023-01-03T02:34:51.669Z,230.87
2023-01-03T02:45:06.547Z,215.40
2023-01-03T02:55:17.451Z,214.77
2023-01-03T03:05:27.234Z,246.90
2023-01-03T03:15:35.925Z,453.20
2023-01-03T03:25:44.827Z,250.00
2023-01-03T03:35:56.485Z,256.13
2023-01-03T03:46:07.502Z,253.77
2023-01-03T03:56:17.766Z,254.23
2023-01-03T04:06:26.968Z,232.50
2023-01-03T04:16:31.853Z,255.63
2023-01-03T04:26:35.307Z,230.67
2023-01-03T04:36:40.199Z,217.93
2023-01-03T04:46:49.004Z,208.97
2023-01-03T04:56:57.248Z,210.53
2023-01-03T05:07:00.727Z,211.83
2023-01-03T05:17:05.634Z,197.23
2023-01-03T05:27:09.246Z,198.60
2023-01-03T05:37:14.170Z,191.33
2023-01-03T05:47:17.635Z,200.37
2023-01-03T05:57:22.501Z,202.33
2023-01-03T06:07:25.987Z,197.83
2023-01-03T06:17:47.974Z,203.17
2023-01-03T06:27:51.522Z,204.63
2023-01-03T06:37:56.365Z,204.77
2023-01-03T06:48:22.274Z,201.07
2023-01-03T06:58:27.311Z,205.67
2023-01-03T07:08:30.776Z,206.30
2023-01-03T07:18:35.616Z,206.13
2023-01-03T07:28:39.035Z,203.87
2023-01-03T07:38:46.705Z,206.70
2023-01-03T07:48:51.979Z,211.83
2023-01-03T07:58:56.822Z,209.23
2023-01-03T08:09:17.983Z,206.13
2023-01-03T08:19:22.931Z,204.47
2023-01-03T08:29:26.393Z,209.73
2023-01-03T08:39:39.068Z,210.33
2023-01-03T08:49:42.895Z,213.90
2023-01-03T08:59:47.725Z,217.30
2023-01-03T09:09:51.195Z,213.80
2023-01-03T09:19:55.987Z,217.23
2023-01-03T09:29:59.461Z,228.77
2023-01-03T09:40:04.686Z,217.53
2023-01-03T09:50:31.444Z,217.77
2023-01-03T10:01:02.031Z,215.03
2023-01-03T10:11:09.907Z,210.57
2023-01-03T10:21:21.908Z,209.90
2023-01-03T10:31:44.380Z,208.93
2023-01-03T10:41:52.371Z,210.30
2023-01-03T10:52:00.102Z,208.10
2023-01-03T11:02:17.752Z,208.63
2023-01-03T11:12:30.183Z,216.80
2023-01-03T11:22:42.790Z,217.70
2023-01-03T11:33:21.481Z,217.13
2023-01-03T11:43:50.764Z,216.80
2023-01-03T11:54:05.392Z,216.47
2023-01-03T12:04:27.105Z,211.10
2023-01-03T12:14:40.147Z,213.30
2023-01-03T12:24:51.267Z,215.07
2023-01-03T12:35:11.165Z,216.40
2023-01-03T12:45:34.844Z,226.13
2023-01-03T12:55:54.838Z,213.47
2023-01-03T13:06:05.310Z,214.80
2023-01-03T13:16:43.627Z,210.80
2023-01-03T13:27:33.247Z,204.43
2023-01-03T13:37:46.474Z,210.00
2023-01-03T13:47:53.427Z,212.53
2023-01-03T13:57:57.034Z,205.80
2023-01-03T14:08:31.810Z,213.47
2023-01-03T14:18:41.249Z,214.80
2023-01-03T14:28:50.393Z,218.10
2023-01-03T14:38:56.880Z,208.57
2023-01-03T14:49:07.176Z,214.97
2023-01-03T14:59:11.042Z,233.00
2023-01-03T15:09:23.017Z,215.83
2023-01-03T15:19:29.813Z,216.07
2023-01-03T15:29:46.274Z,214.70
2023-01-03T15:39:53.226Z,225.33
2023-01-03T15:50:01.714Z,214.77
2023-01-03T16:00:08.287Z,214.07
2023-01-03T16:10:14.162Z,215.53
2023-01-03T16:20:19.379Z,229.77
2023-01-03T16:30:28.164Z,238.97
2023-01-03T16:40:31.868Z,222.80
2023-01-03T16:50:41.603Z,219.03
2023-01-03T17:00:45.184Z,238.37
2023-01-03T17:10:52.781Z,222.93
2023-01-03T17:21:00.017Z,227.23
2023-01-03T17:31:04.972Z,221.43
2023-01-03T17:41:17.024Z,254.83
2023-01-03T17:51:23.198Z,253.73
2023-01-03T18:01:26.863Z,263.77
2023-01-03T18:11:31.886Z,234.80
2023-01-03T18:21:36.797Z,248.97
2023-01-03T18:31:41.867Z,259.77
2023-01-03T18:41:46.037Z,264.77
2023-01-03T18:51:54.172Z,252.30
2023-01-03T19:01:57.831Z,284.57
2023-01-03T19:12:02.975Z,267.87
2023-01-03T19:22:18.215Z,267.70
2023-01-03T19:32:25.591Z,257.20
2023-01-03T19:42:46.483Z,250.03
2023-01-03T19:52:51.638Z,265.97
2023-01-03T20:03:00.875Z,258.33
2023-01-03T20:13:07.359Z,265.10
2023-01-03T20:23:17.591Z,283.53
2023-01-03T20:33:22.464Z,273.60
2023-01-03T20:43:26.125Z,278.20
2023-01-03T20:53:31.010Z,283.80
2023-01-03T21:03:35.584Z,294.10
2023-01-03T21:13:42.211Z,294.37
2023-01-03T21:23:45.736Z,301.93
2023-01-03T21:33:51.567Z,294.00
2023-01-03T21:43:56.779Z,298.67
2023-01-03T21:54:03.792Z,301.87
2023-01-03T22:04:19.622Z,297.80
2023-01-03T22:14:24.513Z,308.23
2023-01-03T22:24:27.930Z,285.47
2023-01-03T22:34:32.829Z,294.00
2023-01-03T22:44:36.336Z,265.33
2023-01-03T22:54:41.659Z,283.40
2023-01-03T23:04:45.181Z,281.33
2023-01-03T23:14:50.048Z,277.67
2023-01-03T23:24:53.759Z,276.63
2023-01-03T23:34:58.553Z,276.97
2023-01-03T23:45:01.996Z,272.63
2023-01-03T23:55:12.611Z,256.17
